sensor_id;sensor_type;location;lat;lon;timestamp;temperature;humidity
10042;DHT22;5061;49.068;12.058;2022-12-13T00:00:42;-6.10;99.90
10042;DHT22;5061;49.068;12.058;2022-12-13T00:04:05;-6.10;99.90
10042;DHT22;5061;49.068;12.058;2022-12-13T00:07:26;-6.10;99.90
10042;DHT22;5061;49.068;12.058;2022-12-13T00:10:47;-6.10;99.90
10042;DHT22;5061;49.068;12.058;2022-12-13T00:14:17;-6.10;99.90
10042;DHT22;5061;49.068;12.058;2022-12-13T00:17:38;-6.20;99.90
10042;DHT22;5061;49.068;12.058;2022-12-13T00:21:00;-6.20;99.90
10042;DHT22;5061;49.068;12.058;2022-12-13T00:24:23;-6.20;99.90
10042;DHT22;5061;49.068;12.058;2022-12-13T00:27:43;-6.30;99.90
10042;DHT22;5061;49.068;12.058;2022-12-13T00:31:04;-6.30;99.90
10042;DHT22;5061;49.068;12.058;2022-12-13T00:34:25;-6.30;99.90
10042;DHT22;5061;49.068;12.058;2022-12-13T00:37:45;-6.30;99.90
10042;DHT22;5061;49.068;12.058;2022-12-13T00:41:13;-6.30;99.90
10042;DHT22;5061;49.068;12.058;2022-12-13T00:44:34;-6.30;99.90
10042;DHT22;5061;49.068;12.058;2022-12-13T00:47:54;-6.30;99.90
10042;DHT22;5061;49.068;12.058;2022-12-13T00:51:15;-6.40;99.90
10042;DHT22;5061;49.068;12.058;2022-12-13T00:54:36;-6.30;99.90
10042;DHT22;5061;49.068;12.058;2022-12-13T00:57:56;-6.30;99.90
10042;DHT22;5061;49.068;12.058;2022-12-13T01:01:19;-6.40;99.90
10042;DHT22;5061;49.068;12.058;2022-12-13T01:04:40;-6.30;99.90
10042;DHT22;5061;49.068;12.058;2022-12-13T01:08:01;-6.40;99.90
10042;DHT22;5061;49.068;12.058;2022-12-13T01:11:21;-6.40;99.90
10042;DHT22;5061;49.068;12.058;2022-12-13T01:14:42;-6.30;99.90
10042;DHT22;5061;49.068;12.058;2022-12-13T01:18:03;-6.40;99.90
10042;DHT22;5061;49.068;12.058;2022-12-13T01:21:24;-6.40;99.90
10042;DHT22;5061;49.068;12.058;2022-12-13T01:24:44;-6.50;99.90
10042;DHT22;5061;49.068;12.058;2022-12-13T01:28:06;-6.50;99.90
10042;DHT22;5061;49.068;12.058;2022-12-13T01:31:26;-6.50;99.90
10042;DHT22;5061;49.068;12.058;2022-12-13T01:34:47;-6.60;99.90
10042;DHT22;5061;49.068;12.058;2022-12-13T01:38:07;-6.50;99.90
10042;DHT22;5061;49.068;12.058;2022-12-13T01:41:28;-6.60;99.90
10042;DHT22;5061;49.068;12.058;2022-12-13T01:45:00;-6.60;99.90
10042;DHT22;5061;49.068;12.058;2022-12-13T01:48:27;-6.60;99.90
10042;DHT22;5061;49.068;12.058;2022-12-13T01:51:52;-6.60;99.90
10042;DHT22;5061;49.068;12.058;2022-12-13T01:55:14;-6.60;99.90
10042;DHT22;5061;49.068;12.058;2022-12-13T01:58:36;-6.60;99.90
10042;DHT22;5061;49.068;12.058;2022-12-13T02:01:58;-6.60;99.90
10042;DHT22;5061;49.068;12.058;2022-12-13T02:05:33;-6.60;99.90
10042;DHT22;5061;49.068;12.058;2022-12-13T02:08:56;-6.60;99.90
10042;DHT22;5061;49.068;12.058;2022-12-13T02:12:16;-6.60;99.90
10042;DHT22;5061;49.068;12.058;2022-12-13T02:16:02;-6.60;99.90
10042;DHT22;5061;49.068;12.058;2022-12-13T02:27:00;-6.70;99.90
10042;DHT22;5061;49.068;12.058;2022-12-13T02:30:27;-6.70;99.90
10042;DHT22;5061;49.068;12.058;2022-12-13T02:34:00;-6.70;99.90
10042;DHT22;5061;49.068;12.058;2022-12-13T02:37:23;-6.70;99.90
10042;DHT22;5061;49.068;12.058;2022-12-13T02:40:50;-6.70;99.90
10042;DHT22;5061;49.068;12.058;2022-12-13T02:47:38;-6.70;99.90
10042;DHT22;5061;49.068;12.058;2022-12-13T02:51:02;-6.80;99.90
10042;DHT22;5061;49.068;12.058;2022-12-13T02:54:24;-6.80;99.90
10042;DHT22;5061;49.068;12.058;2022-12-13T02:57:45;-6.80;99.90
10042;DHT22;5061;49.068;12.058;2022-12-13T03:01:45;-6.90;99.90
10042;DHT22;5061;49.068;12.058;2022-12-13T03:13:04;-7.00;99.90
10042;DHT22;5061;49.068;12.058;2022-12-13T03:16:45;-6.90;99.90
10042;DHT22;5061;49.068;12.058;2022-12-13T03:20:08;-6.90;99.90
10042;DHT22;5061;49.068;12.058;2022-12-13T03:23:29;-6.90;99.90
10042;DHT22;5061;49.068;12.058;2022-12-13T03:26:50;-6.90;99.90
10042;DHT22;5061;49.068;12.058;2022-12-13T03:30:12;-6.80;99.90
10042;DHT22;5061;49.068;12.058;2022-12-13T03:33:32;-6.80;99.90
10042;DHT22;5061;49.068;12.058;2022-12-13T03:36:53;-6.80;99.90
10042;DHT22;5061;49.068;12.058;2022-12-13T03:40:14;-6.70;99.90
10042;DHT22;5061;49.068;12.058;2022-12-13T03:43:34;-6.70;99.90
10042;DHT22;5061;49.068;12.058;2022-12-13T03:46:55;-6.60;99.90
10042;DHT22;5061;49.068;12.058;2022-12-13T03:50:19;-6.60;99.90
10042;DHT22;5061;49.068;12.058;2022-12-13T03:53:39;-6.60;99.90
10042;DHT22;5061;49.068;12.058;2022-12-13T03:57:03;-6.60;99.90
10042;DHT22;5061;49.068;12.058;2022-12-13T04:00:24;-6.60;99.90
10042;DHT22;5061;49.068;12.058;2022-12-13T04:03:46;-6.60;99.90
10042;DHT22;5061;49.068;12.058;2022-12-13T04:07:06;-6.60;99.90
10042;DHT22;5061;49.068;12.058;2022-12-13T04:10:27;-6.60;99.90
10042;DHT22;5061;49.068;12.058;2022-12-13T04:13:48;-6.50;99.90
10042;DHT22;5061;49.068;12.058;2022-12-13T04:17:08;-6.50;99.90
10042;DHT22;5061;49.068;12.058;2022-12-13T04:20:29;-6.50;99.90
10042;DHT22;5061;49.068;12.058;2022-12-13T04:23:50;-6.40;99.90
10042;DHT22;5061;49.068;12.058;2022-12-13T04:27:10;-6.40;99.90
10042;DHT22;5061;49.068;12.058;2022-12-13T04:30:31;-6.30;99.90
10042;DHT22;5061;49.068;12.058;2022-12-13T04:33:52;-6.30;99.90
10042;DHT22;5061;49.068;12.058;2022-12-13T04:37:12;-6.30;99.90
10042;DHT22;5061;49.068;12.058;2022-12-13T04:40:34;-6.20;99.90
10042;DHT22;5061;49.068;12.058;2022-12-13T04:43:54;-6.20;99.90
10042;DHT22;5061;49.068;12.058;2022-12-13T04:47:15;-6.20;99.90
10042;DHT22;5061;49.068;12.058;2022-12-13T04:50:36;-6.20;99.90
10042;DHT22;5061;49.068;12.058;2022-12-13T04:53:57;-6.20;99.90
10042;DHT22;5061;49.068;12.058;2022-12-13T04:57:17;-6.10;99.90
10042;DHT22;5061;49.068;12.058;2022-12-13T05:00:39;-6.10;99.90
10042;DHT22;5061;49.068;12.058;2022-12-13T05:04:02;-6.10;99.90
10042;DHT22;5061;49.068;12.058;2022-12-13T05:07:23;-6.10;99.90
10042;DHT22;5061;49.068;12.058;2022-12-13T05:10:44;-6.10;99.90
10042;DHT22;5061;49.068;12.058;2022-12-13T05:14:05;-6.00;99.90
10042;DHT22;5061;49.068;12.058;2022-12-13T05:17:26;-6.00;99.90
10042;DHT22;5061;49.068;12.058;2022-12-13T05:20:46;-6.00;99.90
10042;DHT22;5061;49.068;12.058;2022-12-13T05:24:07;-6.00;99.90
10042;DHT22;5061;49.068;12.058;2022-12-13T05:27:28;-6.00;99.90
10042;DHT22;5061;49.068;12.058;2022-12-13T05:30:48;-6.00;99.90
10042;DHT22;5061;49.068;12.058;2022-12-13T05:34:09;-6.00;99.90
10042;DHT22;5061;49.068;12.058;2022-12-13T05:37:29;-5.90;99.90
10042;DHT22;5061;49.068;12.058;2022-12-13T05:40:50;-5.90;99.90
10042;DHT22;5061;49.068;12.058;2022-12-13T05:44:11;-5.90;99.90
10042;DHT22;5061;49.068;12.058;2022-12-13T05:47:32;-5.90;99.90
10042;DHT22;5061;49.068;12.058;2022-12-13T05:50:53;-5.90;99.90
10042;DHT22;5061;49.068;12.058;2022-12-13T05:54:14;-5.90;99.90
10042;DHT22;5061;49.068;12.058;2022-12-13T05:57:35;-5.90;99.90
10042;DHT22;5061;49.068;12.058;2022-12-13T06:01:10;-5.90;99.90
10042;DHT22;5061;49.068;12.058;2022-12-13T06:04:32;-5.90;99.90
10042;DHT22;5061;49.068;12.058;2022-12-13T06:07:53;-5.90;99.90
10042;DHT22;5061;49.068;12.058;2022-12-13T06:11:15;-5.90;99.90
10042;DHT22;5061;49.068;12.058;2022-12-13T06:14:35;-5.90;99.90
10042;DHT22;5061;49.068;12.058;2022-12-13T06:17:58;-5.90;99.90
10042;DHT22;5061;49.068;12.058;2022-12-13T06:21:19;-5.90;99.90
10042;DHT22;5061;49.068;12.058;2022-12-13T06:24:39;-5.90;99.90
10042;DHT22;5061;49.068;12.058;2022-12-13T06:28:00;-5.90;99.90
10042;DHT22;5061;49.068;12.058;2022-12-13T06:31:21;-5.80;99.90
10042;DHT22;5061;49.068;12.058;2022-12-13T06:34:42;-5.90;99.90
10042;DHT22;5061;49.068;12.058;2022-12-13T06:38:02;-5.90;99.90
10042;DHT22;5061;49.068;12.058;2022-12-13T06:41:23;-5.90;99.90
10042;DHT22;5061;49.068;12.058;2022-12-13T06:44:43;-5.90;99.90
10042;DHT22;5061;49.068;12.058;2022-12-13T06:48:04;-5.90;99.90
10042;DHT22;5061;49.068;12.058;2022-12-13T06:51:27;-5.90;99.90
10042;DHT22;5061;49.068;12.058;2022-12-13T06:54:48;-5.90;99.90
10042;DHT22;5061;49.068;12.058;2022-12-13T06:58:08;-6.00;99.90
10042;DHT22;5061;49.068;12.058;2022-12-13T07:01:29;-6.00;99.90
10042;DHT22;5061;49.068;12.058;2022-12-13T07:04:50;-6.00;99.90
10042;DHT22;5061;49.068;12.058;2022-12-13T07:08:12;-6.10;99.90
10042;DHT22;5061;49.068;12.058;2022-12-13T07:11:32;-6.10;99.90
10042;DHT22;5061;49.068;12.058;2022-12-13T07:14:53;-6.10;99.90
10042;DHT22;5061;49.068;12.058;2022-12-13T07:18:14;-6.20;99.90
10042;DHT22;5061;49.068;12.058;2022-12-13T07:21:35;-6.20;99.90
10042;DHT22;5061;49.068;12.058;2022-12-13T07:24:57;-6.20;99.90
10042;DHT22;5061;49.068;12.058;2022-12-13T07:28:18;-6.30;99.90
10042;DHT22;5061;49.068;12.058;2022-12-13T07:31:39;-6.30;99.90
10042;DHT22;5061;49.068;12.058;2022-12-13T07:34:59;-6.40;99.90
10042;DHT22;5061;49.068;12.058;2022-12-13T07:38:20;-6.40;99.90
10042;DHT22;5061;49.068;12.058;2022-12-13T07:41:40;-6.40;99.90
10042;DHT22;5061;49.068;12.058;2022-12-13T07:45:01;-6.40;99.90
10042;DHT22;5061;49.068;12.058;2022-12-13T07:48:22;-6.40;99.90
10042;DHT22;5061;49.068;12.058;2022-12-13T07:51:42;-6.40;99.90
10042;DHT22;5061;49.068;12.058;2022-12-13T07:55:04;-6.50;99.90
10042;DHT22;5061;49.068;12.058;2022-12-13T07:58:25;-6.50;99.90
10042;DHT22;5061;49.068;12.058;2022-12-13T08:01:46;-6.50;99.90
10042;DHT22;5061;49.068;12.058;2022-12-13T08:05:07;-6.50;99.90
10042;DHT22;5061;49.068;12.058;2022-12-13T08:08:28;-6.50;99.90
10042;DHT22;5061;49.068;12.058;2022-12-13T08:11:49;-6.50;99.90
10042;DHT22;5061;49.068;12.058;2022-12-13T08:15:10;-6.50;99.90
10042;DHT22;5061;49.068;12.058;2022-12-13T08:18:31;-6.50;99.90
10042;DHT22;5061;49.068;12.058;2022-12-13T08:21:52;-6.50;99.90
10042;DHT22;5061;49.068;12.058;2022-12-13T08:25:12;-6.50;99.90
10042;DHT22;5061;49.068;12.058;2022-12-13T08:28:34;-6.40;99.90
10042;DHT22;5061;49.068;12.058;2022-12-13T08:31:56;-6.40;99.90
10042;DHT22;5061;49.068;12.058;2022-12-13T08:35:17;-6.40;99.90
10042;DHT22;5061;49.068;12.058;2022-12-13T08:38:38;-6.50;99.90
10042;DHT22;5061;49.068;12.058;2022-12-13T08:41:58;-6.50;99.90
10042;DHT22;5061;49.068;12.058;2022-12-13T08:45:19;-6.50;99.90
10042;DHT22;5061;49.068;12.058;2022-12-13T08:48:40;-6.50;99.90
10042;DHT22;5061;49.068;12.058;2022-12-13T08:52:00;-6.50;99.90
10042;DHT22;5061;49.068;12.058;2022-12-13T08:55:21;-6.50;99.90
10042;DHT22;5061;49.068;12.058;2022-12-13T08:58:42;-6.50;99.90
10042;DHT22;5061;49.068;12.058;2022-12-13T09:02:02;-6.60;99.90
10042;DHT22;5061;49.068;12.058;2022-12-13T09:05:23;-6.50;99.90
10042;DHT22;5061;49.068;12.058;2022-12-13T09:08:44;-6.60;99.90
10042;DHT22;5061;49.068;12.058;2022-12-13T09:12:07;-6.50;99.90
10042;DHT22;5061;49.068;12.058;2022-12-13T09:15:30;-6.50;99.90
10042;DHT22;5061;49.068;12.058;2022-12-13T09:18:52;-6.50;99.90
10042;DHT22;5061;49.068;12.058;2022-12-13T09:22:12;-6.40;99.90
10042;DHT22;5061;49.068;12.058;2022-12-13T09:25:33;-6.40;99.90
10042;DHT22;5061;49.068;12.058;2022-12-13T09:28:54;-6.40;99.90
10042;DHT22;5061;49.068;12.058;2022-12-13T09:32:15;-6.30;99.90
10042;DHT22;5061;49.068;12.058;2022-12-13T09:35:38;-6.30;99.90
10042;DHT22;5061;49.068;12.058;2022-12-13T09:38:59;-6.30;99.90
10042;DHT22;5061;49.068;12.058;2022-12-13T09:42:22;-6.30;99.90
10042;DHT22;5061;49.068;12.058;2022-12-13T09:45:44;-6.30;99.90
10042;DHT22;5061;49.068;12.058;2022-12-13T09:52:42;-6.20;99.90
10042;DHT22;5061;49.068;12.058;2022-12-13T09:56:03;-6.20;99.90
10042;DHT22;5061;49.068;12.058;2022-12-13T09:59:34;-6.20;99.90
10042;DHT22;5061;49.068;12.058;2022-12-13T10:02:56;-6.20;99.90
10042;DHT22;5061;49.068;12.058;2022-12-13T10:06:20;-6.20;99.90
10042;DHT22;5061;49.068;12.058;2022-12-13T10:09:41;-6.20;99.90
10042;DHT22;5061;49.068;12.058;2022-12-13T10:13:18;-6.20;99.90
10042;DHT22;5061;49.068;12.058;2022-12-13T10:16:49;-6.10;99.90
10042;DHT22;5061;49.068;12.058;2022-12-13T10:20:16;-6.10;99.90
10042;DHT22;5061;49.068;12.058;2022-12-13T10:23:37;-6.10;99.90
10042;DHT22;5061;49.068;12.058;2022-12-13T10:27:11;-6.10;99.90
10042;DHT22;5061;49.068;12.058;2022-12-13T10:30:41;-6.10;99.90
10042;DHT22;5061;49.068;12.058;2022-12-13T10:34:03;-6.00;99.90
10042;DHT22;5061;49.068;12.058;2022-12-13T10:37:28;-6.00;99.90
10042;DHT22;5061;49.068;12.058;2022-12-13T10:40:51;-6.00;99.90
10042;DHT22;5061;49.068;12.058;2022-12-13T10:44:22;-6.00;99.90
10042;DHT22;5061;49.068;12.058;2022-12-13T10:47:44;-6.00;99.90
10042;DHT22;5061;49.068;12.058;2022-12-13T10:51:09;-6.00;99.90
10042;DHT22;5061;49.068;12.058;2022-12-13T10:54:35;-5.90;99.90
10042;DHT22;5061;49.068;12.058;2022-12-13T10:58:00;-5.90;99.90
10042;DHT22;5061;49.068;12.058;2022-12-13T11:01:22;-5.90;99.90
10042;DHT22;5061;49.068;12.058;2022-12-13T11:04:47;-5.90;99.90
10042;DHT22;5061;49.068;12.058;2022-12-13T11:08:22;-5.80;99.90
10042;DHT22;5061;49.068;12.058;2022-12-13T11:11:45;-5.80;99.90
10042;DHT22;5061;49.068;12.058;2022-12-13T11:15:17;-5.80;99.90
10042;DHT22;5061;49.068;12.058;2022-12-13T11:18:41;-5.70;99.90
10042;DHT22;5061;49.068;12.058;2022-12-13T11:22:02;-5.70;99.90
10042;DHT22;5061;49.068;12.058;2022-12-13T11:25:32;-5.70;99.90
10042;DHT22;5061;49.068;12.058;2022-12-13T11:29:52;-5.70;99.90
10042;DHT22;5061;49.068;12.058;2022-12-13T11:37:01;-5.60;99.90
10042;DHT22;5061;49.068;12.058;2022-12-13T11:40:43;-5.60;99.90
10042;DHT22;5061;49.068;12.058;2022-12-13T11:44:18;-5.60;99.90
10042;DHT22;5061;49.068;12.058;2022-12-13T11:55:41;-5.50;99.90
10042;DHT22;5061;49.068;12.058;2022-12-13T12:02:55;-5.40;99.90
10042;DHT22;5061;49.068;12.058;2022-12-13T12:06:23;-5.40;99.90
10042;DHT22;5061;49.068;12.058;2022-12-13T12:10:25;-5.30;99.90
10042;DHT22;5061;49.068;12.058;2022-12-13T12:13:52;-5.20;99.90
10042;DHT22;5061;49.068;12.058;2022-12-13T12:17:20;-5.20;99.90
10042;DHT22;5061;49.068;12.058;2022-12-13T12:20:51;-5.20;99.90
10042;DHT22;5061;49.068;12.058;2022-12-13T12:28:06;-5.10;99.90
10042;DHT22;5061;49.068;12.058;2022-12-13T12:31:50;-5.10;99.90
10042;DHT22;5061;49.068;12.058;2022-12-13T12:35:58;-5.00;99.90
10042;DHT22;5061;49.068;12.058;2022-12-13T12:43:53;-4.90;99.90
10042;DHT22;5061;49.068;12.058;2022-12-13T12:47:09;-4.90;99.90
10042;DHT22;5061;49.068;12.058;2022-12-13T12:51:13;-4.90;99.90
10042;DHT22;5061;49.068;12.058;2022-12-13T12:55:08;-4.90;99.90
10042;DHT22;5061;49.068;12.058;2022-12-13T13:02:04;-4.80;99.90
10042;DHT22;5061;49.068;12.058;2022-12-13T13:05:32;-4.70;99.90
10042;DHT22;5061;49.068;12.058;2022-12-13T13:08:59;-4.70;99.90
10042;DHT22;5061;49.068;12.058;2022-12-13T13:12:25;-4.60;99.90
10042;DHT22;5061;49.068;12.058;2022-12-13T13:15:54;-4.60;99.90
10042;DHT22;5061;49.068;12.058;2022-12-13T13:22:36;-4.50;99.90
10042;DHT22;5061;49.068;12.058;2022-12-13T13:25:57;-4.50;99.90
10042;DHT22;5061;49.068;12.058;2022-12-13T13:32:50;-4.50;99.90
10042;DHT22;5061;49.068;12.058;2022-12-13T13:43:29;-4.40;99.90
10042;DHT22;5061;49.068;12.058;2022-12-13T14:20:28;-4.40;99.90
10042;DHT22;5061;49.068;12.058;2022-12-13T14:31:44;-4.40;99.90
10042;DHT22;5061;49.068;12.058;2022-12-13T14:35:06;-4.50;99.90
10042;DHT22;5061;49.068;12.058;2022-12-13T14:38:28;-4.50;99.90
10042;DHT22;5061;49.068;12.058;2022-12-13T14:41:52;-4.50;99.90
10042;DHT22;5061;49.068;12.058;2022-12-13T14:45:32;-4.50;99.90
10042;DHT22;5061;49.068;12.058;2022-12-13T14:48:54;-4.50;99.90
10042;DHT22;5061;49.068;12.058;2022-12-13T14:52:27;-4.50;99.90
10042;DHT22;5061;49.068;12.058;2022-12-13T14:56:07;-4.60;99.90
10042;DHT22;5061;49.068;12.058;2022-12-13T14:59:29;-4.60;99.90
10042;DHT22;5061;49.068;12.058;2022-12-13T15:02:52;-4.60;99.90
10042;DHT22;5061;49.068;12.058;2022-12-13T15:06:13;-4.60;99.90
10042;DHT22;5061;49.068;12.058;2022-12-13T15:09:37;-4.70;99.90
10042;DHT22;5061;49.068;12.058;2022-12-13T15:12:58;-4.70;99.90
10042;DHT22;5061;49.068;12.058;2022-12-13T15:16:21;-4.70;99.90
10042;DHT22;5061;49.068;12.058;2022-12-13T15:19:43;-4.70;99.90
10042;DHT22;5061;49.068;12.058;2022-12-13T15:26:42;-4.70;99.90
10042;DHT22;5061;49.068;12.058;2022-12-13T15:30:05;-4.80;99.90
10042;DHT22;5061;49.068;12.058;2022-12-13T15:33:29;-4.80;99.90
10042;DHT22;5061;49.068;12.058;2022-12-13T15:36:50;-4.80;99.90
10042;DHT22;5061;49.068;12.058;2022-12-13T15:40:12;-4.80;99.90
10042;DHT22;5061;49.068;12.058;2022-12-13T15:43:43;-4.80;99.90
10042;DHT22;5061;49.068;12.058;2022-12-13T15:47:10;-4.80;99.90
10042;DHT22;5061;49.068;12.058;2022-12-13T15:50:37;-4.80;99.90
10042;DHT22;5061;49.068;12.058;2022-12-13T15:54:05;-4.80;99.90
10042;DHT22;5061;49.068;12.058;2022-12-13T15:57:29;-4.90;99.90
10042;DHT22;5061;49.068;12.058;2022-12-13T16:00:50;-4.90;99.90
10042;DHT22;5061;49.068;12.058;2022-12-13T16:04:21;-4.90;99.90
10042;DHT22;5061;49.068;12.058;2022-12-13T16:07:42;-4.90;99.90
10042;DHT22;5061;49.068;12.058;2022-12-13T16:11:04;-4.90;99.90
10042;DHT22;5061;49.068;12.058;2022-12-13T16:18:11;-4.90;99.90
10042;DHT22;5061;49.068;12.058;2022-12-13T16:21:32;-5.00;99.90
10042;DHT22;5061;49.068;12.058;2022-12-13T16:24:53;-5.00;99.90
10042;DHT22;5061;49.068;12.058;2022-12-13T16:28:16;-5.00;99.90
10042;DHT22;5061;49.068;12.058;2022-12-13T16:31:37;-5.00;99.90
10042;DHT22;5061;49.068;12.058;2022-12-13T16:34:58;-5.00;99.90
10042;DHT22;5061;49.068;12.058;2022-12-13T16:38:18;-5.00;99.90
10042;DHT22;5061;49.068;12.058;2022-12-13T16:41:46;-5.00;99.90
10042;DHT22;5061;49.068;12.058;2022-12-13T16:45:11;-4.90;99.90
10042;DHT22;5061;49.068;12.058;2022-12-13T16:48:32;-4.90;99.90
10042;DHT22;5061;49.068;12.058;2022-12-13T16:51:53;-4.90;99.90
10042;DHT22;5061;49.068;12.058;2022-12-13T16:55:14;-4.90;99.90
10042;DHT22;5061;49.068;12.058;2022-12-13T16:58:35;-4.90;99.90
10042;DHT22;5061;49.068;12.058;2022-12-13T17:01:58;-4.90;99.90
10042;DHT22;5061;49.068;12.058;2022-12-13T17:05:19;-4.90;99.90
10042;DHT22;5061;49.068;12.058;2022-12-13T17:08:40;-4.90;99.90
10042;DHT22;5061;49.068;12.058;2022-12-13T17:12:01;-4.90;99.90
10042;DHT22;5061;49.068;12.058;2022-12-13T17:15:21;-4.90;99.90
10042;DHT22;5061;49.068;12.058;2022-12-13T17:18:42;-4.90;99.90
10042;DHT22;5061;49.068;12.058;2022-12-13T17:22:02;-4.90;99.90
10042;DHT22;5061;49.068;12.058;2022-12-13T17:25:26;-4.90;99.90
10042;DHT22;5061;49.068;12.058;2022-12-13T17:28:47;-4.90;99.90
10042;DHT22;5061;49.068;12.058;2022-12-13T17:32:08;-4.90;99.90
10042;DHT22;5061;49.068;12.058;2022-12-13T17:35:29;-4.90;99.90
10042;DHT22;5061;49.068;12.058;2022-12-13T17:38:51;-4.80;99.90
10042;DHT22;5061;49.068;12.058;2022-12-13T17:42:11;-4.80;99.90
10042;DHT22;5061;49.068;12.058;2022-12-13T17:45:32;-4.80;99.90
10042;DHT22;5061;49.068;12.058;2022-12-13T17:48:53;-4.80;99.90
10042;DHT22;5061;49.068;12.058;2022-12-13T17:52:13;-4.80;99.90
10042;DHT22;5061;49.068;12.058;2022-12-13T17:55:34;-4.80;99.90
10042;DHT22;5061;49.068;12.058;2022-12-13T17:58:54;-4.70;99.90
10042;DHT22;5061;49.068;12.058;2022-12-13T18:02:15;-4.70;99.90
10042;DHT22;5061;49.068;12.058;2022-12-13T18:05:42;-4.80;99.90
10042;DHT22;5061;49.068;12.058;2022-12-13T18:09:02;-4.80;99.90
10042;DHT22;5061;49.068;12.058;2022-12-13T18:12:23;-4.80;99.90
10042;DHT22;5061;49.068;12.058;2022-12-13T18:15:43;-4.70;99.90
10042;DHT22;5061;49.068;12.058;2022-12-13T18:19:06;-4.80;99.90
10042;DHT22;5061;49.068;12.058;2022-12-13T18:22:27;-4.80;99.90
10042;DHT22;5061;49.068;12.058;2022-12-13T18:25:47;-4.80;99.90
10042;DHT22;5061;49.068;12.058;2022-12-13T18:29:10;-4.80;99.90
10042;DHT22;5061;49.068;12.058;2022-12-13T18:32:31;-4.80;99.90
10042;DHT22;5061;49.068;12.058;2022-12-13T18:35:51;-4.80;99.90
10042;DHT22;5061;49.068;12.058;2022-12-13T18:39:12;-4.80;99.90
10042;DHT22;5061;49.068;12.058;2022-12-13T18:42:33;-4.80;99.90
10042;DHT22;5061;49.068;12.058;2022-12-13T18:45:53;-4.80;99.90
10042;DHT22;5061;49.068;12.058;2022-12-13T18:49:14;-4.80;99.90
10042;DHT22;5061;49.068;12.058;2022-12-13T18:52:35;-4.80;99.90
10042;DHT22;5061;49.068;12.058;2022-12-13T18:56:03;-4.80;99.90
10042;DHT22;5061;49.068;12.058;2022-12-13T18:59:27;-4.80;99.90
10042;DHT22;5061;49.068;12.058;2022-12-13T19:02:50;-4.80;99.90
10042;DHT22;5061;49.068;12.058;2022-12-13T19:06:17;-4.80;99.90
10042;DHT22;5061;49.068;12.058;2022-12-13T19:09:38;-4.80;99.90
10042;DHT22;5061;49.068;12.058;2022-12-13T19:12:59;-4.80;99.90
10042;DHT22;5061;49.068;12.058;2022-12-13T19:16:21;-4.80;99.90
10042;DHT22;5061;49.068;12.058;2022-12-13T19:19:42;-4.80;99.90
10042;DHT22;5061;49.068;12.058;2022-12-13T19:23:02;-4.80;99.90
10042;DHT22;5061;49.068;12.058;2022-12-13T19:26:24;-4.80;99.90
10042;DHT22;5061;49.068;12.058;2022-12-13T19:29:44;-4.80;99.90
10042;DHT22;5061;49.068;12.058;2022-12-13T19:33:08;-4.80;99.90
10042;DHT22;5061;49.068;12.058;2022-12-13T19:36:30;-4.80;99.90
10042;DHT22;5061;49.068;12.058;2022-12-13T19:39:51;-4.90;99.90
10042;DHT22;5061;49.068;12.058;2022-12-13T19:43:12;-4.80;99.90
10042;DHT22;5061;49.068;12.058;2022-12-13T19:46:33;-4.80;99.90
10042;DHT22;5061;49.068;12.058;2022-12-13T19:49:53;-4.90;99.90
10042;DHT22;5061;49.068;12.058;2022-12-13T19:53:14;-4.90;99.90
10042;DHT22;5061;49.068;12.058;2022-12-13T19:56:35;-4.90;99.90
10042;DHT22;5061;49.068;12.058;2022-12-13T19:59:56;-4.90;99.90
10042;DHT22;5061;49.068;12.058;2022-12-13T20:03:17;-4.90;99.90
10042;DHT22;5061;49.068;12.058;2022-12-13T20:06:38;-4.90;99.90
10042;DHT22;5061;49.068;12.058;2022-12-13T20:09:58;-4.90;99.90
10042;DHT22;5061;49.068;12.058;2022-12-13T20:13:19;-4.90;99.90
10042;DHT22;5061;49.068;12.058;2022-12-13T20:16:40;-4.90;99.90
10042;DHT22;5061;49.068;12.058;2022-12-13T20:20:03;-4.90;99.90
10042;DHT22;5061;49.068;12.058;2022-12-13T20:23:24;-4.90;99.90
10042;DHT22;5061;49.068;12.058;2022-12-13T20:26:44;-4.90;99.90
10042;DHT22;5061;49.068;12.058;2022-12-13T20:30:05;-4.90;99.90
10042;DHT22;5061;49.068;12.058;2022-12-13T20:33:26;-4.90;99.90
10042;DHT22;5061;49.068;12.058;2022-12-13T20:36:47;-4.90;99.90
10042;DHT22;5061;49.068;12.058;2022-12-13T20:40:08;-4.90;99.90
10042;DHT22;5061;49.068;12.058;2022-12-13T20:43:30;-4.90;99.90
10042;DHT22;5061;49.068;12.058;2022-12-13T20:46:50;-4.90;99.90
10042;DHT22;5061;49.068;12.058;2022-12-13T20:50:11;-4.90;99.90
10042;DHT22;5061;49.068;12.058;2022-12-13T20:53:37;-4.80;99.90
10042;DHT22;5061;49.068;12.058;2022-12-13T20:57:01;-4.90;99.90
10042;DHT22;5061;49.068;12.058;2022-12-13T21:00:21;-4.80;99.90
10042;DHT22;5061;49.068;12.058;2022-12-13T21:03:42;-4.80;99.90
10042;DHT22;5061;49.068;12.058;2022-12-13T21:07:03;-4.80;99.90
10042;DHT22;5061;49.068;12.058;2022-12-13T21:10:24;-4.80;99.90
10042;DHT22;5061;49.068;12.058;2022-12-13T21:13:49;-4.80;99.90
10042;DHT22;5061;49.068;12.058;2022-12-13T21:17:10;-4.80;99.90
10042;DHT22;5061;49.068;12.058;2022-12-13T21:20:31;-4.80;99.90
10042;DHT22;5061;49.068;12.058;2022-12-13T21:23:53;-4.80;99.90
10042;DHT22;5061;49.068;12.058;2022-12-13T21:27:17;-4.80;99.90
10042;DHT22;5061;49.068;12.058;2022-12-13T21:30:38;-4.90;99.90
10042;DHT22;5061;49.068;12.058;2022-12-13T21:34:02;-4.90;99.90
10042;DHT22;5061;49.068;12.058;2022-12-13T21:37:23;-4.90;99.90
10042;DHT22;5061;49.068;12.058;2022-12-13T21:40:48;-4.90;99.90
10042;DHT22;5061;49.068;12.058;2022-12-13T21:44:10;-4.90;99.90
10042;DHT22;5061;49.068;12.058;2022-12-13T21:47:31;-4.90;99.90
10042;DHT22;5061;49.068;12.058;2022-12-13T21:50:55;-4.90;99.90
10042;DHT22;5061;49.068;12.058;2022-12-13T21:54:15;-4.90;99.90
10042;DHT22;5061;49.068;12.058;2022-12-13T21:57:37;-4.90;99.90
10042;DHT22;5061;49.068;12.058;2022-12-13T22:01:16;-4.90;99.90
10042;DHT22;5061;49.068;12.058;2022-12-13T22:04:51;-4.90;99.90
10042;DHT22;5061;49.068;12.058;2022-12-13T22:08:12;-4.90;99.90
10042;DHT22;5061;49.068;12.058;2022-12-13T22:11:33;-4.90;99.90
10042;DHT22;5061;49.068;12.058;2022-12-13T22:14:54;-4.90;99.90
10042;DHT22;5061;49.068;12.058;2022-12-13T22:18:14;-4.90;99.90
10042;DHT22;5061;49.068;12.058;2022-12-13T22:21:35;-4.90;99.90
10042;DHT22;5061;49.068;12.058;2022-12-13T22:24:55;-4.90;99.90
10042;DHT22;5061;49.068;12.058;2022-12-13T22:28:16;-4.90;99.90
10042;DHT22;5061;49.068;12.058;2022-12-13T22:31:37;-4.90;99.90
10042;DHT22;5061;49.068;12.058;2022-12-13T22:34:58;-5.00;99.90
10042;DHT22;5061;49.068;12.058;2022-12-13T22:38:19;-5.00;99.90
10042;DHT22;5061;49.068;12.058;2022-12-13T22:41:39;-5.00;99.90
10042;DHT22;5061;49.068;12.058;2022-12-13T22:45:00;-5.00;99.90
10042;DHT22;5061;49.068;12.058;2022-12-13T22:48:20;-5.00;99.90
10042;DHT22;5061;49.068;12.058;2022-12-13T22:51:41;-5.00;99.90
10042;DHT22;5061;49.068;12.058;2022-12-13T22:55:02;-5.00;99.90
10042;DHT22;5061;49.068;12.058;2022-12-13T22:58:23;-5.00;99.90
10042;DHT22;5061;49.068;12.058;2022-12-13T23:01:43;-5.00;99.90
10042;DHT22;5061;49.068;12.058;2022-12-13T23:05:04;-5.00;99.90
10042;DHT22;5061;49.068;12.058;2022-12-13T23:08:25;-5.00;99.90
10042;DHT22;5061;49.068;12.058;2022-12-13T23:11:46;-5.00;99.90
10042;DHT22;5061;49.068;12.058;2022-12-13T23:15:25;-5.00;99.90